KLNN/LNN METAR and TAF weather

Enter ICAO airport designator
Station Type Date Time Source
KLNN METAR 2022/12/08 12:55 UTC NOAA

KLNN 081255Z AUTO 06003KT 1SM SCT010 BKN015 OVC021 05/04 A3034 RMK AO1 T00480036


Station Type Date Time Source
KLNN Decoded METAR 2022/12/08 12:55 UTC NOAA

Willoughby, OH, United States (KLNN) 41-41N 081-23W
Dec 08, 2022 - 07:55 AM EST / 2022.12.08 1255 UTC
Wind: from the ENE (060 degrees) at 3 MPH (3 KT):0
Visibility: 1 mile(s):0
Sky conditions: overcast
Temperature: 40.6 F (4.8 C)
Dew Point: 38.5 F (3.6 C)
Relative Humidity: 91%
Pressure (altimeter): 30.34 in. Hg (1027 hPa)
ob: KLNN 081255Z AUTO 06003KT 1SM SCT010 BKN015 OVC021 05/04 A3034 RMK AO1 T00480036
cycle: 13

Station Type Date Time Source
KLNN TAF UTC NOAA

Error!

Example: see airport list